sensor_id;sensor_type;location;lat;lon;timestamp;P1;durP1;ratioP1;P2;durP2;ratioP2
46675;SDS011;32412;51.478;5.694;2022-11-27T00:01:21;18.55;;;6.47;;
46675;SDS011;32412;51.478;5.694;2022-11-27T00:03:49;19.65;;;6.40;;
46675;SDS011;32412;51.478;5.694;2022-11-27T00:06:16;20.75;;;6.60;;
46675;SDS011;32412;51.478;5.694;2022-11-27T00:08:44;16.48;;;7.18;;
46675;SDS011;32412;51.478;5.694;2022-11-27T00:11:14;16.95;;;6.95;;
46675;SDS011;32412;51.478;5.694;2022-11-27T00:13:41;18.95;;;6.80;;
46675;SDS011;32412;51.478;5.694;2022-11-27T00:16:07;17.05;;;6.25;;
46675;SDS011;32412;51.478;5.694;2022-11-27T00:18:34;18.92;;;6.28;;
46675;SDS011;32412;51.478;5.694;2022-11-27T00:21:01;20.05;;;6.15;;
46675;SDS011;32412;51.478;5.694;2022-11-27T00:23:28;13.40;;;6.13;;
46675;SDS011;32412;51.478;5.694;2022-11-27T00:25:54;17.02;;;6.65;;
46675;SDS011;32412;51.478;5.694;2022-11-27T00:28:20;17.13;;;5.75;;
46675;SDS011;32412;51.478;5.694;2022-11-27T00:30:46;13.05;;;6.13;;
46675;SDS011;32412;51.478;5.694;2022-11-27T00:33:11;21.23;;;7.50;;
46675;SDS011;32412;51.478;5.694;2022-11-27T00:35:37;18.30;;;6.60;;
46675;SDS011;32412;51.478;5.694;2022-11-27T00:38:03;15.98;;;5.80;;
46675;SDS011;32412;51.478;5.694;2022-11-27T00:40:29;17.60;;;6.82;;
46675;SDS011;32412;51.478;5.694;2022-11-27T00:42:55;19.10;;;6.55;;
46675;SDS011;32412;51.478;5.694;2022-11-27T00:45:21;14.13;;;6.22;;
46675;SDS011;32412;51.478;5.694;2022-11-27T00:47:46;21.90;;;7.20;;
46675;SDS011;32412;51.478;5.694;2022-11-27T00:50:12;22.85;;;6.50;;
46675;SDS011;32412;51.478;5.694;2022-11-27T00:52:38;16.95;;;6.45;;
46675;SDS011;32412;51.478;5.694;2022-11-27T00:55:04;14.82;;;6.60;;
46675;SDS011;32412;51.478;5.694;2022-11-27T00:57:30;16.77;;;6.65;;
46675;SDS011;32412;51.478;5.694;2022-11-27T00:59:55;20.30;;;6.53;;
46675;SDS011;32412;51.478;5.694;2022-11-27T01:02:21;16.13;;;6.97;;
46675;SDS011;32412;51.478;5.694;2022-11-27T01:04:47;24.23;;;7.40;;
46675;SDS011;32412;51.478;5.694;2022-11-27T01:07:13;24.20;;;7.25;;
46675;SDS011;32412;51.478;5.694;2022-11-27T01:09:39;19.25;;;7.22;;
46675;SDS011;32412;51.478;5.694;2022-11-27T01:12:05;17.55;;;7.43;;
46675;SDS011;32412;51.478;5.694;2022-11-27T01:14:31;13.52;;;6.05;;
46675;SDS011;32412;51.478;5.694;2022-11-27T01:16:56;23.50;;;7.07;;
46675;SDS011;32412;51.478;5.694;2022-11-27T01:19:22;17.55;;;7.20;;
46675;SDS011;32412;51.478;5.694;2022-11-27T01:21:47;22.50;;;7.40;;
46675;SDS011;32412;51.478;5.694;2022-11-27T01:24:14;19.73;;;7.70;;
46675;SDS011;32412;51.478;5.694;2022-11-27T01:26:40;27.13;;;7.40;;
46675;SDS011;32412;51.478;5.694;2022-11-27T01:29:07;18.52;;;7.45;;
46675;SDS011;32412;51.478;5.694;2022-11-27T01:31:33;18.30;;;7.38;;
46675;SDS011;32412;51.478;5.694;2022-11-27T01:34:00;25.52;;;8.02;;
46675;SDS011;32412;51.478;5.694;2022-11-27T01:36:38;22.55;;;7.38;;
46675;SDS011;32412;51.478;5.694;2022-11-27T01:39:03;24.10;;;7.78;;
46675;SDS011;32412;51.478;5.694;2022-11-27T01:41:31;17.58;;;7.25;;
46675;SDS011;32412;51.478;5.694;2022-11-27T01:44:01;15.43;;;7.82;;
46675;SDS011;32412;51.478;5.694;2022-11-27T01:46:48;27.17;;;8.82;;
46675;SDS011;32412;51.478;5.694;2022-11-27T01:49:25;21.58;;;8.50;;
46675;SDS011;32412;51.478;5.694;2022-11-27T01:52:20;24.00;;;8.50;;
46675;SDS011;32412;51.478;5.694;2022-11-27T01:57:26;24.05;;;9.40;;
46675;SDS011;32412;51.478;5.694;2022-11-27T01:59:55;21.20;;;8.50;;
46675;SDS011;32412;51.478;5.694;2022-11-27T02:02:23;21.52;;;9.00;;
46675;SDS011;32412;51.478;5.694;2022-11-27T02:04:49;21.20;;;8.20;;
46675;SDS011;32412;51.478;5.694;2022-11-27T02:07:14;22.88;;;8.13;;
46675;SDS011;32412;51.478;5.694;2022-11-27T02:09:40;16.75;;;7.88;;
46675;SDS011;32412;51.478;5.694;2022-11-27T02:17:33;16.55;;;7.38;;
46675;SDS011;32412;51.478;5.694;2022-11-27T02:23:13;19.65;;;7.07;;
46675;SDS011;32412;51.478;5.694;2022-11-27T02:26:00;18.73;;;7.30;;
46675;SDS011;32412;51.478;5.694;2022-11-27T02:31:12;21.45;;;6.75;;
46675;SDS011;32412;51.478;5.694;2022-11-27T02:33:45;18.55;;;6.53;;
46675;SDS011;32412;51.478;5.694;2022-11-27T02:36:20;16.05;;;6.22;;
46675;SDS011;32412;51.478;5.694;2022-11-27T02:38:52;16.33;;;5.93;;
46675;SDS011;32412;51.478;5.694;2022-11-27T02:43:50;12.80;;;5.78;;
46675;SDS011;32412;51.478;5.694;2022-11-27T02:46:18;15.05;;;6.00;;
46675;SDS011;32412;51.478;5.694;2022-11-27T02:48:49;13.55;;;5.25;;
46675;SDS011;32412;51.478;5.694;2022-11-27T02:51:22;14.97;;;5.33;;
46675;SDS011;32412;51.478;5.694;2022-11-27T02:53:52;12.13;;;4.63;;
46675;SDS011;32412;51.478;5.694;2022-11-27T02:56:21;14.27;;;5.10;;
46675;SDS011;32412;51.478;5.694;2022-11-27T02:58:50;10.18;;;5.55;;
46675;SDS011;32412;51.478;5.694;2022-11-27T03:01:19;12.05;;;4.38;;
46675;SDS011;32412;51.478;5.694;2022-11-27T03:03:48;12.32;;;4.80;;
46675;SDS011;32412;51.478;5.694;2022-11-27T03:06:19;15.15;;;4.55;;
46675;SDS011;32412;51.478;5.694;2022-11-27T03:08:50;14.15;;;4.50;;
46675;SDS011;32412;51.478;5.694;2022-11-27T03:11:21;12.70;;;4.28;;
46675;SDS011;32412;51.478;5.694;2022-11-27T03:13:48;10.55;;;4.20;;
46675;SDS011;32412;51.478;5.694;2022-11-27T03:21:47;10.23;;;3.22;;
46675;SDS011;32412;51.478;5.694;2022-11-27T03:24:20;11.32;;;4.50;;
46675;SDS011;32412;51.478;5.694;2022-11-27T03:26:46;16.38;;;3.63;;
46675;SDS011;32412;51.478;5.694;2022-11-27T03:29:17;10.85;;;4.03;;
46675;SDS011;32412;51.478;5.694;2022-11-27T03:31:46;12.75;;;3.95;;
46675;SDS011;32412;51.478;5.694;2022-11-27T03:34:12;8.52;;;3.30;;
46675;SDS011;32412;51.478;5.694;2022-11-27T03:36:38;13.63;;;3.75;;
46675;SDS011;32412;51.478;5.694;2022-11-27T03:39:03;17.13;;;3.80;;
46675;SDS011;32412;51.478;5.694;2022-11-27T03:41:44;11.90;;;3.50;;
46675;SDS011;32412;51.478;5.694;2022-11-27T03:47:25;7.05;;;2.90;;
46675;SDS011;32412;51.478;5.694;2022-11-27T03:50:18;11.27;;;3.40;;
46675;SDS011;32412;51.478;5.694;2022-11-27T03:53:15;8.65;;;3.20;;
46675;SDS011;32412;51.478;5.694;2022-11-27T03:58:38;9.18;;;3.03;;
46675;SDS011;32412;51.478;5.694;2022-11-27T04:01:12;8.98;;;2.95;;
46675;SDS011;32412;51.478;5.694;2022-11-27T04:03:41;13.50;;;2.90;;
46675;SDS011;32412;51.478;5.694;2022-11-27T04:06:06;12.00;;;2.95;;
46675;SDS011;32412;51.478;5.694;2022-11-27T04:08:32;7.65;;;2.65;;
46675;SDS011;32412;51.478;5.694;2022-11-27T04:10:58;12.18;;;3.17;;
46675;SDS011;32412;51.478;5.694;2022-11-27T04:13:23;10.48;;;2.88;;
46675;SDS011;32412;51.478;5.694;2022-11-27T04:15:49;8.32;;;2.60;;
46675;SDS011;32412;51.478;5.694;2022-11-27T04:18:15;9.82;;;2.97;;
46675;SDS011;32412;51.478;5.694;2022-11-27T04:20:40;8.10;;;3.03;;
46675;SDS011;32412;51.478;5.694;2022-11-27T04:23:06;7.88;;;2.70;;
46675;SDS011;32412;51.478;5.694;2022-11-27T04:25:31;9.32;;;3.47;;
46675;SDS011;32412;51.478;5.694;2022-11-27T04:27:57;10.88;;;2.83;;
46675;SDS011;32412;51.478;5.694;2022-11-27T04:30:23;10.18;;;3.13;;
46675;SDS011;32412;51.478;5.694;2022-11-27T04:32:48;9.38;;;2.67;;
46675;SDS011;32412;51.478;5.694;2022-11-27T04:35:14;7.85;;;2.70;;
46675;SDS011;32412;51.478;5.694;2022-11-27T04:37:40;8.05;;;2.53;;
46675;SDS011;32412;51.478;5.694;2022-11-27T04:40:06;12.27;;;3.10;;
46675;SDS011;32412;51.478;5.694;2022-11-27T04:42:32;8.70;;;3.08;;
46675;SDS011;32412;51.478;5.694;2022-11-27T04:44:57;12.18;;;2.85;;
46675;SDS011;32412;51.478;5.694;2022-11-27T04:47:23;6.47;;;2.55;;
46675;SDS011;32412;51.478;5.694;2022-11-27T04:49:49;12.60;;;2.65;;
46675;SDS011;32412;51.478;5.694;2022-11-27T04:52:14;7.25;;;2.50;;
46675;SDS011;32412;51.478;5.694;2022-11-27T04:54:40;10.45;;;3.00;;
46675;SDS011;32412;51.478;5.694;2022-11-27T04:57:06;15.88;;;3.75;;
46675;SDS011;32412;51.478;5.694;2022-11-27T04:59:31;10.57;;;3.53;;
46675;SDS011;32412;51.478;5.694;2022-11-27T05:01:57;11.57;;;2.88;;
46675;SDS011;32412;51.478;5.694;2022-11-27T05:04:23;12.27;;;3.28;;
46675;SDS011;32412;51.478;5.694;2022-11-27T05:06:49;11.48;;;3.25;;
46675;SDS011;32412;51.478;5.694;2022-11-27T05:09:18;9.25;;;3.10;;
46675;SDS011;32412;51.478;5.694;2022-11-27T05:11:44;10.68;;;3.20;;
46675;SDS011;32412;51.478;5.694;2022-11-27T05:14:09;12.80;;;3.53;;
46675;SDS011;32412;51.478;5.694;2022-11-27T05:16:51;9.50;;;3.50;;
46675;SDS011;32412;51.478;5.694;2022-11-27T05:19:19;10.43;;;3.50;;
46675;SDS011;32412;51.478;5.694;2022-11-27T05:21:47;14.55;;;3.80;;
46675;SDS011;32412;51.478;5.694;2022-11-27T05:24:13;9.45;;;3.90;;
46675;SDS011;32412;51.478;5.694;2022-11-27T05:26:42;8.20;;;3.40;;
46675;SDS011;32412;51.478;5.694;2022-11-27T05:29:09;8.43;;;3.42;;
46675;SDS011;32412;51.478;5.694;2022-11-27T05:31:35;9.38;;;3.67;;
46675;SDS011;32412;51.478;5.694;2022-11-27T05:34:02;10.82;;;3.80;;
46675;SDS011;32412;51.478;5.694;2022-11-27T05:36:28;11.10;;;4.05;;
46675;SDS011;32412;51.478;5.694;2022-11-27T05:38:55;13.00;;;4.05;;
46675;SDS011;32412;51.478;5.694;2022-11-27T05:41:21;13.05;;;4.40;;
46675;SDS011;32412;51.478;5.694;2022-11-27T05:43:47;9.75;;;4.15;;
46675;SDS011;32412;51.478;5.694;2022-11-27T05:46:13;8.57;;;4.13;;
46675;SDS011;32412;51.478;5.694;2022-11-27T05:48:41;10.27;;;3.63;;
46675;SDS011;32412;51.478;5.694;2022-11-27T05:51:07;11.05;;;4.60;;
46675;SDS011;32412;51.478;5.694;2022-11-27T05:53:33;12.23;;;4.07;;
46675;SDS011;32412;51.478;5.694;2022-11-27T05:56:05;14.73;;;3.90;;
46675;SDS011;32412;51.478;5.694;2022-11-27T05:58:33;8.43;;;3.92;;
46675;SDS011;32412;51.478;5.694;2022-11-27T06:01:00;10.77;;;4.32;;
46675;SDS011;32412;51.478;5.694;2022-11-27T06:03:26;8.90;;;4.32;;
46675;SDS011;32412;51.478;5.694;2022-11-27T06:05:52;14.88;;;4.72;;
46675;SDS011;32412;51.478;5.694;2022-11-27T06:08:18;10.88;;;4.20;;
46675;SDS011;32412;51.478;5.694;2022-11-27T06:10:44;13.13;;;4.32;;
46675;SDS011;32412;51.478;5.694;2022-11-27T06:13:10;13.95;;;4.50;;
46675;SDS011;32412;51.478;5.694;2022-11-27T06:15:36;12.30;;;4.75;;
46675;SDS011;32412;51.478;5.694;2022-11-27T06:18:03;11.35;;;5.13;;
46675;SDS011;32412;51.478;5.694;2022-11-27T06:20:28;12.57;;;4.88;;
46675;SDS011;32412;51.478;5.694;2022-11-27T06:22:55;13.75;;;4.78;;
46675;SDS011;32412;51.478;5.694;2022-11-27T06:25:20;12.13;;;5.25;;
46675;SDS011;32412;51.478;5.694;2022-11-27T06:27:47;10.90;;;4.85;;
46675;SDS011;32412;51.478;5.694;2022-11-27T06:30:13;10.68;;;4.80;;
46675;SDS011;32412;51.478;5.694;2022-11-27T06:32:39;15.43;;;5.72;;
46675;SDS011;32412;51.478;5.694;2022-11-27T06:35:05;12.23;;;4.80;;
46675;SDS011;32412;51.478;5.694;2022-11-27T06:37:31;12.18;;;5.18;;
46675;SDS011;32412;51.478;5.694;2022-11-27T06:39:56;10.50;;;4.82;;
46675;SDS011;32412;51.478;5.694;2022-11-27T06:42:22;13.27;;;4.97;;
46675;SDS011;32412;51.478;5.694;2022-11-27T06:44:48;10.10;;;5.15;;
46675;SDS011;32412;51.478;5.694;2022-11-27T06:47:13;13.15;;;5.28;;
46675;SDS011;32412;51.478;5.694;2022-11-27T06:49:41;14.02;;;4.75;;
46675;SDS011;32412;51.478;5.694;2022-11-27T06:52:07;11.30;;;5.18;;
46675;SDS011;32412;51.478;5.694;2022-11-27T06:54:33;11.60;;;4.90;;
46675;SDS011;32412;51.478;5.694;2022-11-27T06:56:58;13.02;;;5.10;;
46675;SDS011;32412;51.478;5.694;2022-11-27T06:59:24;13.15;;;6.18;;
46675;SDS011;32412;51.478;5.694;2022-11-27T07:01:50;13.77;;;5.60;;
46675;SDS011;32412;51.478;5.694;2022-11-27T07:04:15;17.33;;;5.63;;
46675;SDS011;32412;51.478;5.694;2022-11-27T07:06:41;10.43;;;5.47;;
46675;SDS011;32412;51.478;5.694;2022-11-27T07:09:07;14.48;;;5.90;;
46675;SDS011;32412;51.478;5.694;2022-11-27T07:11:34;15.20;;;6.35;;
46675;SDS011;32412;51.478;5.694;2022-11-27T07:14:00;16.02;;;5.50;;
46675;SDS011;32412;51.478;5.694;2022-11-27T07:16:28;16.23;;;6.57;;
46675;SDS011;32412;51.478;5.694;2022-11-27T07:19:03;17.70;;;6.20;;
46675;SDS011;32412;51.478;5.694;2022-11-27T07:21:31;11.95;;;5.93;;
46675;SDS011;32412;51.478;5.694;2022-11-27T07:23:56;11.80;;;5.72;;
46675;SDS011;32412;51.478;5.694;2022-11-27T07:26:26;13.23;;;6.35;;
46675;SDS011;32412;51.478;5.694;2022-11-27T07:28:53;23.15;;;10.82;;
46675;SDS011;32412;51.478;5.694;2022-11-27T07:31:24;18.05;;;8.65;;
46675;SDS011;32412;51.478;5.694;2022-11-27T07:33:52;14.10;;;6.55;;
46675;SDS011;32412;51.478;5.694;2022-11-27T07:36:19;16.20;;;6.93;;
46675;SDS011;32412;51.478;5.694;2022-11-27T07:38:46;14.05;;;6.50;;
46675;SDS011;32412;51.478;5.694;2022-11-27T07:41:12;15.43;;;6.88;;
46675;SDS011;32412;51.478;5.694;2022-11-27T07:43:38;14.02;;;6.35;;
46675;SDS011;32412;51.478;5.694;2022-11-27T07:46:06;22.02;;;6.90;;
46675;SDS011;32412;51.478;5.694;2022-11-27T07:48:34;15.90;;;6.57;;
46675;SDS011;32412;51.478;5.694;2022-11-27T07:51:00;13.13;;;6.40;;
46675;SDS011;32412;51.478;5.694;2022-11-27T07:53:26;16.20;;;6.30;;
46675;SDS011;32412;51.478;5.694;2022-11-27T07:55:51;17.27;;;7.70;;
46675;SDS011;32412;51.478;5.694;2022-11-27T07:58:17;16.60;;;6.15;;
46675;SDS011;32412;51.478;5.694;2022-11-27T08:00:42;15.75;;;6.85;;
46675;SDS011;32412;51.478;5.694;2022-11-27T08:03:09;16.67;;;6.68;;
46675;SDS011;32412;51.478;5.694;2022-11-27T08:05:35;19.65;;;7.07;;
46675;SDS011;32412;51.478;5.694;2022-11-27T08:08:01;15.77;;;7.63;;
46675;SDS011;32412;51.478;5.694;2022-11-27T08:10:37;19.15;;;7.53;;
46675;SDS011;32412;51.478;5.694;2022-11-27T08:13:04;17.20;;;7.20;;
46675;SDS011;32412;51.478;5.694;2022-11-27T08:15:30;18.00;;;7.50;;
46675;SDS011;32412;51.478;5.694;2022-11-27T08:17:56;15.02;;;6.45;;
46675;SDS011;32412;51.478;5.694;2022-11-27T08:20:22;15.15;;;7.72;;
46675;SDS011;32412;51.478;5.694;2022-11-27T08:22:48;15.90;;;6.88;;
46675;SDS011;32412;51.478;5.694;2022-11-27T08:25:13;22.02;;;7.85;;
46675;SDS011;32412;51.478;5.694;2022-11-27T08:27:39;15.73;;;7.22;;
46675;SDS011;32412;51.478;5.694;2022-11-27T08:30:05;15.10;;;6.78;;
46675;SDS011;32412;51.478;5.694;2022-11-27T08:32:31;20.30;;;7.38;;
46675;SDS011;32412;51.478;5.694;2022-11-27T08:34:57;17.67;;;7.78;;
46675;SDS011;32412;51.478;5.694;2022-11-27T08:37:23;12.73;;;6.43;;
46675;SDS011;32412;51.478;5.694;2022-11-27T08:39:48;15.70;;;7.30;;
46675;SDS011;32412;51.478;5.694;2022-11-27T08:42:14;22.67;;;7.30;;
46675;SDS011;32412;51.478;5.694;2022-11-27T08:44:40;16.63;;;7.25;;
46675;SDS011;32412;51.478;5.694;2022-11-27T08:47:05;14.98;;;7.18;;
46675;SDS011;32412;51.478;5.694;2022-11-27T08:49:31;19.48;;;8.15;;
46675;SDS011;32412;51.478;5.694;2022-11-27T08:51:57;16.88;;;7.68;;
46675;SDS011;32412;51.478;5.694;2022-11-27T08:54:22;18.35;;;7.47;;
46675;SDS011;32412;51.478;5.694;2022-11-27T08:56:49;14.88;;;7.45;;
46675;SDS011;32412;51.478;5.694;2022-11-27T08:59:15;21.13;;;7.35;;
46675;SDS011;32412;51.478;5.694;2022-11-27T09:01:41;15.10;;;7.05;;
46675;SDS011;32412;51.478;5.694;2022-11-27T09:04:07;18.85;;;8.50;;
46675;SDS011;32412;51.478;5.694;2022-11-27T09:06:32;16.50;;;8.00;;
46675;SDS011;32412;51.478;5.694;2022-11-27T09:09:02;16.05;;;6.97;;
46675;SDS011;32412;51.478;5.694;2022-11-27T09:11:29;18.02;;;7.20;;
46675;SDS011;32412;51.478;5.694;2022-11-27T09:14:00;21.92;;;7.97;;
46675;SDS011;32412;51.478;5.694;2022-11-27T09:16:26;15.48;;;7.20;;
46675;SDS011;32412;51.478;5.694;2022-11-27T09:18:54;23.42;;;7.80;;
46675;SDS011;32412;51.478;5.694;2022-11-27T09:21:21;18.02;;;7.85;;
46675;SDS011;32412;51.478;5.694;2022-11-27T09:23:52;19.15;;;7.65;;
46675;SDS011;32412;51.478;5.694;2022-11-27T09:26:18;18.33;;;7.40;;
46675;SDS011;32412;51.478;5.694;2022-11-27T09:28:44;18.08;;;7.70;;
46675;SDS011;32412;51.478;5.694;2022-11-27T09:31:11;16.48;;;7.68;;
46675;SDS011;32412;51.478;5.694;2022-11-27T09:33:39;12.65;;;6.60;;
46675;SDS011;32412;51.478;5.694;2022-11-27T09:36:07;13.35;;;7.10;;
46675;SDS011;32412;51.478;5.694;2022-11-27T09:38:34;21.65;;;8.40;;
46675;SDS011;32412;51.478;5.694;2022-11-27T09:43:39;16.63;;;7.68;;
46675;SDS011;32412;51.478;5.694;2022-11-27T09:46:10;19.48;;;8.80;;
46675;SDS011;32412;51.478;5.694;2022-11-27T09:48:44;19.30;;;7.63;;
46675;SDS011;32412;51.478;5.694;2022-11-27T09:56:37;20.90;;;7.28;;
46675;SDS011;32412;51.478;5.694;2022-11-27T09:59:07;17.25;;;7.57;;
46675;SDS011;32412;51.478;5.694;2022-11-27T10:01:39;17.42;;;7.50;;
46675;SDS011;32412;51.478;5.694;2022-11-27T10:04:04;16.83;;;7.05;;
46675;SDS011;32412;51.478;5.694;2022-11-27T10:06:31;13.93;;;7.05;;
46675;SDS011;32412;51.478;5.694;2022-11-27T10:19:52;17.65;;;7.53;;
46675;SDS011;32412;51.478;5.694;2022-11-27T10:25:20;12.95;;;7.50;;
46675;SDS011;32412;51.478;5.694;2022-11-27T10:30:36;20.33;;;6.72;;
46675;SDS011;32412;51.478;5.694;2022-11-27T10:35:39;11.63;;;6.65;;
46675;SDS011;32412;51.478;5.694;2022-11-27T10:38:10;15.20;;;6.80;;
46675;SDS011;32412;51.478;5.694;2022-11-27T10:48:11;16.33;;;7.78;;
46675;SDS011;32412;51.478;5.694;2022-11-27T10:50:38;13.45;;;6.65;;
46675;SDS011;32412;51.478;5.694;2022-11-27T10:53:06;19.42;;;7.75;;
46675;SDS011;32412;51.478;5.694;2022-11-27T10:55:47;14.35;;;7.10;;
46675;SDS011;32412;51.478;5.694;2022-11-27T11:01:12;17.10;;;8.00;;
46675;SDS011;32412;51.478;5.694;2022-11-27T11:03:39;15.45;;;7.28;;
46675;SDS011;32412;51.478;5.694;2022-11-27T11:06:07;15.40;;;7.72;;
46675;SDS011;32412;51.478;5.694;2022-11-27T11:08:39;15.60;;;7.03;;
46675;SDS011;32412;51.478;5.694;2022-11-27T11:11:05;18.75;;;7.80;;
46675;SDS011;32412;51.478;5.694;2022-11-27T11:16:05;14.13;;;7.90;;
46675;SDS011;32412;51.478;5.694;2022-11-27T11:18:40;15.60;;;8.23;;
46675;SDS011;32412;51.478;5.694;2022-11-27T11:21:11;12.45;;;7.30;;
46675;SDS011;32412;51.478;5.694;2022-11-27T11:24:04;12.63;;;7.68;;
46675;SDS011;32412;51.478;5.694;2022-11-27T11:26:58;15.50;;;8.07;;
46675;SDS011;32412;51.478;5.694;2022-11-27T11:29:30;15.45;;;7.65;;
46675;SDS011;32412;51.478;5.694;2022-11-27T11:31:56;20.70;;;8.90;;
46675;SDS011;32412;51.478;5.694;2022-11-27T11:34:28;15.88;;;8.55;;
46675;SDS011;32412;51.478;5.694;2022-11-27T11:39:25;16.65;;;7.93;;
46675;SDS011;32412;51.478;5.694;2022-11-27T11:41:56;15.88;;;7.72;;
46675;SDS011;32412;51.478;5.694;2022-11-27T11:44:45;17.45;;;10.02;;
46675;SDS011;32412;51.478;5.694;2022-11-27T11:47:17;16.95;;;7.50;;
46675;SDS011;32412;51.478;5.694;2022-11-27T11:49:43;19.23;;;9.93;;
46675;SDS011;32412;51.478;5.694;2022-11-27T12:00:48;15.60;;;8.05;;
46675;SDS011;32412;51.478;5.694;2022-11-27T12:03:34;21.80;;;8.02;;
46675;SDS011;32412;51.478;5.694;2022-11-27T12:20:11;16.73;;;7.53;;
46675;SDS011;32412;51.478;5.694;2022-11-27T12:28:18;12.43;;;7.82;;
46675;SDS011;32412;51.478;5.694;2022-11-27T12:34:02;13.60;;;6.50;;
46675;SDS011;32412;51.478;5.694;2022-11-27T12:52:55;14.68;;;7.10;;
46675;SDS011;32412;51.478;5.694;2022-11-27T12:55:28;12.25;;;6.70;;
46675;SDS011;32412;51.478;5.694;2022-11-27T12:58:16;14.80;;;7.18;;
46675;SDS011;32412;51.478;5.694;2022-11-27T13:00:48;13.95;;;5.75;;
46675;SDS011;32412;51.478;5.694;2022-11-27T13:03:16;13.00;;;7.07;;
46675;SDS011;32412;51.478;5.694;2022-11-27T13:05:53;13.07;;;6.78;;
46675;SDS011;32412;51.478;5.694;2022-11-27T13:08:26;16.20;;;7.17;;
46675;SDS011;32412;51.478;5.694;2022-11-27T13:11:12;14.30;;;7.32;;
46675;SDS011;32412;51.478;5.694;2022-11-27T13:13:54;12.13;;;8.02;;
46675;SDS011;32412;51.478;5.694;2022-11-27T13:21:48;13.98;;;6.35;;
46675;SDS011;32412;51.478;5.694;2022-11-27T13:24:16;12.15;;;6.57;;
46675;SDS011;32412;51.478;5.694;2022-11-27T13:26:46;11.50;;;6.95;;
46675;SDS011;32412;51.478;5.694;2022-11-27T13:29:27;15.70;;;7.05;;
46675;SDS011;32412;51.478;5.694;2022-11-27T13:31:55;12.82;;;6.22;;
46675;SDS011;32412;51.478;5.694;2022-11-27T13:34:25;10.95;;;6.03;;
46675;SDS011;32412;51.478;5.694;2022-11-27T13:37:06;8.48;;;5.88;;
46675;SDS011;32412;51.478;5.694;2022-11-27T13:39:34;11.57;;;5.80;;
46675;SDS011;32412;51.478;5.694;2022-11-27T13:44:57;11.50;;;5.97;;
46675;SDS011;32412;51.478;5.694;2022-11-27T13:47:28;9.70;;;5.85;;
46675;SDS011;32412;51.478;5.694;2022-11-27T13:50:05;11.88;;;6.72;;
46675;SDS011;32412;51.478;5.694;2022-11-27T13:52:36;10.93;;;6.65;;
46675;SDS011;32412;51.478;5.694;2022-11-27T13:55:27;10.00;;;6.15;;
46675;SDS011;32412;51.478;5.694;2022-11-27T13:57:58;12.00;;;5.68;;
46675;SDS011;32412;51.478;5.694;2022-11-27T14:03:04;10.70;;;5.50;;
46675;SDS011;32412;51.478;5.694;2022-11-27T14:05:40;10.85;;;5.93;;
46675;SDS011;32412;51.478;5.694;2022-11-27T14:08:47;11.98;;;5.65;;
46675;SDS011;32412;51.478;5.694;2022-11-27T14:11:04;10.40;;;6.03;;
46675;SDS011;32412;51.478;5.694;2022-11-27T14:13:53;10.55;;;5.80;;
46675;SDS011;32412;51.478;5.694;2022-11-27T14:16:29;11.02;;;5.38;;
46675;SDS011;32412;51.478;5.694;2022-11-27T14:19:00;11.63;;;5.90;;
46675;SDS011;32412;51.478;5.694;2022-11-27T14:21:47;10.43;;;5.53;;
46675;SDS011;32412;51.478;5.694;2022-11-27T14:27:19;13.10;;;5.82;;
46675;SDS011;32412;51.478;5.694;2022-11-27T14:29:47;13.23;;;7.55;;
46675;SDS011;32412;51.478;5.694;2022-11-27T14:32:14;9.13;;;6.15;;
46675;SDS011;32412;51.478;5.694;2022-11-27T14:34:40;11.68;;;6.10;;
46675;SDS011;32412;51.478;5.694;2022-11-27T14:37:18;10.07;;;6.00;;
46675;SDS011;32412;51.478;5.694;2022-11-27T14:39:53;11.82;;;6.07;;
46675;SDS011;32412;51.478;5.694;2022-11-27T14:42:23;12.95;;;7.22;;
46675;SDS011;32412;51.478;5.694;2022-11-27T14:45:04;15.23;;;6.35;;
46675;SDS011;32412;51.478;5.694;2022-11-27T14:47:31;10.88;;;5.10;;
46675;SDS011;32412;51.478;5.694;2022-11-27T14:49:57;8.05;;;5.22;;
46675;SDS011;32412;51.478;5.694;2022-11-27T14:52:24;10.02;;;5.85;;
46675;SDS011;32412;51.478;5.694;2022-11-27T14:54:51;11.95;;;6.30;;
46675;SDS011;32412;51.478;5.694;2022-11-27T14:57:25;12.27;;;5.53;;
46675;SDS011;32412;51.478;5.694;2022-11-27T15:00:03;10.63;;;5.50;;
46675;SDS011;32412;51.478;5.694;2022-11-27T15:02:39;10.63;;;5.68;;
46675;SDS011;32412;51.478;5.694;2022-11-27T15:05:05;15.93;;;7.43;;
46675;SDS011;32412;51.478;5.694;2022-11-27T15:07:32;13.38;;;7.50;;
46675;SDS011;32412;51.478;5.694;2022-11-27T15:10:03;11.10;;;6.53;;
46675;SDS011;32412;51.478;5.694;2022-11-27T15:12:52;13.43;;;6.10;;
46675;SDS011;32412;51.478;5.694;2022-11-27T15:15:21;9.05;;;5.65;;
46675;SDS011;32412;51.478;5.694;2022-11-27T15:18:01;9.65;;;5.53;;
46675;SDS011;32412;51.478;5.694;2022-11-27T15:20:39;10.52;;;5.63;;
46675;SDS011;32412;51.478;5.694;2022-11-27T15:23:14;8.88;;;6.10;;
46675;SDS011;32412;51.478;5.694;2022-11-27T15:25:46;9.93;;;6.50;;
46675;SDS011;32412;51.478;5.694;2022-11-27T15:28:57;9.88;;;6.10;;
46675;SDS011;32412;51.478;5.694;2022-11-27T15:31:32;8.40;;;5.10;;
46675;SDS011;32412;51.478;5.694;2022-11-27T15:34:05;8.40;;;4.85;;
46675;SDS011;32412;51.478;5.694;2022-11-27T15:36:40;8.02;;;4.85;;
46675;SDS011;32412;51.478;5.694;2022-11-27T15:41:39;8.30;;;4.57;;
46675;SDS011;32412;51.478;5.694;2022-11-27T15:44:14;10.68;;;5.88;;
46675;SDS011;32412;51.478;5.694;2022-11-27T15:46:40;9.15;;;5.40;;
46675;SDS011;32412;51.478;5.694;2022-11-27T15:49:10;8.68;;;5.40;;
46675;SDS011;32412;51.478;5.694;2022-11-27T15:51:38;9.32;;;4.70;;
46675;SDS011;32412;51.478;5.694;2022-11-27T15:54:04;9.88;;;5.20;;
46675;SDS011;32412;51.478;5.694;2022-11-27T15:56:30;8.20;;;5.25;;
46675;SDS011;32412;51.478;5.694;2022-11-27T15:58:55;8.82;;;5.07;;
46675;SDS011;32412;51.478;5.694;2022-11-27T16:01:21;7.00;;;4.93;;
46675;SDS011;32412;51.478;5.694;2022-11-27T16:03:46;5.43;;;4.63;;
46675;SDS011;32412;51.478;5.694;2022-11-27T16:06:12;7.28;;;5.05;;
46675;SDS011;32412;51.478;5.694;2022-11-27T16:08:38;8.95;;;5.18;;
46675;SDS011;32412;51.478;5.694;2022-11-27T16:11:05;9.75;;;4.90;;
46675;SDS011;32412;51.478;5.694;2022-11-27T16:13:33;10.32;;;5.53;;
46675;SDS011;32412;51.478;5.694;2022-11-27T16:16:02;8.23;;;5.18;;
46675;SDS011;32412;51.478;5.694;2022-11-27T16:18:30;10.35;;;5.25;;
46675;SDS011;32412;51.478;5.694;2022-11-27T16:21:03;8.43;;;4.95;;
46675;SDS011;32412;51.478;5.694;2022-11-27T16:23:31;12.63;;;5.50;;
46675;SDS011;32412;51.478;5.694;2022-11-27T16:25:56;10.45;;;4.93;;
46675;SDS011;32412;51.478;5.694;2022-11-27T16:28:23;10.95;;;5.10;;
46675;SDS011;32412;51.478;5.694;2022-11-27T16:30:53;9.13;;;4.57;;
46675;SDS011;32412;51.478;5.694;2022-11-27T16:33:24;12.10;;;5.65;;
46675;SDS011;32412;51.478;5.694;2022-11-27T16:35:50;10.30;;;4.95;;
46675;SDS011;32412;51.478;5.694;2022-11-27T16:38:16;8.52;;;5.43;;
46675;SDS011;32412;51.478;5.694;2022-11-27T16:40:43;8.65;;;4.72;;
46675;SDS011;32412;51.478;5.694;2022-11-27T16:43:09;7.00;;;4.15;;
46675;SDS011;32412;51.478;5.694;2022-11-27T16:45:35;9.10;;;4.45;;
46675;SDS011;32412;51.478;5.694;2022-11-27T16:48:01;10.07;;;4.55;;
46675;SDS011;32412;51.478;5.694;2022-11-27T16:50:27;9.38;;;5.18;;
46675;SDS011;32412;51.478;5.694;2022-11-27T16:52:54;6.70;;;4.93;;
46675;SDS011;32412;51.478;5.694;2022-11-27T16:55:21;11.70;;;5.45;;
46675;SDS011;32412;51.478;5.694;2022-11-27T16:57:47;11.20;;;5.07;;
46675;SDS011;32412;51.478;5.694;2022-11-27T17:00:13;6.75;;;4.38;;
46675;SDS011;32412;51.478;5.694;2022-11-27T17:02:40;12.25;;;6.25;;